Terminal Aerodrome Forecast
Issued by NWS

Home | Current Version | Previous Version | Text Only | Print | Product List | Glossary Off
Versions: 1 2 3 4 5 6 7 8 9 10 11 12 13 14 15

000
FTUS43 KICT 312341
TAFRSL
TAF
KRSL 312341Z 0100/0124 14009KT P6SM SCT030 BKN120
     FM010100 13007KT P6SM SCT070
     FM010800 15007KT P6SM VCTS SCT040 BKN070CB
     FM011100 14008KT 3SM BR SCT010
     FM011400 16013KT P6SM SCT120
     FM011600 17015G22KT P6SM BKN035=

USA.gov is the U.S. government's official web portal to all federal, state and local government web resources and services.